Time;durP1;ratioP1;P1;durP2;ratioP2;P2;SDS_P1;SDS_P2;PMS_P1;PMS_P2;Temp;Humidity;BMP_temperature;BMP_pressure;BME280_temperature;BME280_humidity;BME280_pressure;Samples;Min_cycle;Max_cycle;Signal;HPM_P1;HPM_P2
2021/11/07 00:00:01;;;;;;;5.13;3.00;;;10.40;99.90;;;;;;5022566;28;20431;-48
2021/11/07 00:05:41;;;;;;;3.37;2.40;;;10.30;99.90;;;;;;5018200;28;20662;-46
2021/11/07 00:08:07;;;;;;;2.87;2.57;;;10.30;99.90;;;;;;5013674;28;20532;-46
2021/11/07 00:13:13;;;;;;;6.07;3.00;;;10.40;99.90;;;;;;5023473;28;20439;-45
2021/11/07 00:15:39;;;;;;;3.63;2.80;;;10.50;99.90;;;;;;5016287;28;20445;-45
2021/11/07 00:18:11;;;;;;;5.40;3.00;;;10.60;99.90;;;;;;5030171;28;20429;-46
2021/11/07 00:20:43;;;;;;;2.80;2.60;;;10.40;99.90;;;;;;5017782;28;20440;-45
2021/11/07 00:23:25;;;;;;;3.50;3.20;;;10.50;99.90;;;;;;5028023;28;20544;-46
2021/11/07 00:25:56;;;;;;;7.27;3.53;;;10.30;99.90;;;;;;5010280;28;20980;-45
2021/11/07 00:28:37;;;;;;;4.60;2.90;;;10.40;99.90;;;;;;5024080;28;20437;-49
2021/11/07 00:31:21;;;;;;;7.20;3.90;;;10.30;99.90;;;;;;5024452;28;20425;-45
2021/11/07 00:36:39;;;;;;;5.20;3.80;;;10.10;99.90;;;;;;5028631;28;20428;-46
2021/11/07 00:39:15;;;;;;;5.23;4.73;;;10.10;99.90;;;;;;5028084;28;20429;-45
2021/11/07 00:42:01;;;;;;;5.60;3.80;;;10.00;99.90;;;;;;5023252;28;20440;-44
2021/11/07 00:44:41;;;;;;;4.87;4.33;;;10.00;99.90;;;;;;5023987;28;20778;-45
2021/11/07 00:47:45;;;;;;;6.03;4.70;;;10.00;99.90;;;;;;5014947;28;20504;-45
2021/11/07 00:50:07;;;;;;;4.00;3.60;;;10.00;99.90;;;;;;5011204;28;20817;-48
2021/11/07 00:52:49;;;;;;;6.40;4.17;;;9.80;99.90;;;;;;5016599;28;20995;-45
2021/11/07 00:55:22;;;;;;;5.00;4.00;;;10.00;99.90;;;;;;5010085;28;20422;-45
2021/11/07 00:57:59;;;;;;;5.10;4.60;;;10.00;99.90;;;;;;5012945;28;20452;-45
2021/11/07 01:03:03;;;;;;;5.20;4.70;;;9.90;99.90;;;;;;5009337;28;20430;-46
2021/11/07 01:05:32;;;;;;;5.63;4.90;;;9.80;99.90;;;;;;5014549;28;20467;-44
2021/11/07 01:07:58;;;;;;;8.00;5.40;;;9.60;99.90;;;;;;5009559;28;20430;-47
2021/11/07 01:10:26;;;;;;;6.13;4.97;;;9.70;99.90;;;;;;5009503;28;20422;-45
2021/11/07 01:12:52;;;;;;;6.00;4.70;;;9.80;99.90;;;;;;5011483;28;20186;-45
2021/11/07 01:15:18;;;;;;;6.37;5.67;;;9.90;99.90;;;;;;5017695;28;20949;-46
2021/11/07 01:17:44;;;;;;;8.70;5.50;;;9.70;99.90;;;;;;5017602;28;20792;-45
2021/11/07 01:20:13;;;;;;;5.53;4.90;;;9.80;99.90;;;;;;5010459;28;20496;-45
2021/11/07 01:23:00;;;;;;;5.40;4.80;;;9.70;99.90;;;;;;5008902;28;20418;-46
2021/11/07 01:25:30;;;;;;;5.97;4.60;;;9.80;99.90;;;;;;5009329;28;20461;-45
2021/11/07 01:27:58;;;;;;;8.37;5.47;;;9.60;99.90;;;;;;5010610;28;20646;-46
2021/11/07 01:30:27;;;;;;;8.87;5.77;;;9.90;99.90;;;;;;5014715;28;20638;-46
2021/11/07 01:33:02;;;;;;;8.53;5.40;;;9.70;99.90;;;;;;5008593;28;20433;-45
2021/11/07 01:35:40;;;;;;;7.40;6.67;;;9.50;99.90;;;;;;5011594;28;20556;-45
2021/11/07 01:40:37;;;;;;;6.93;4.80;;;9.60;99.90;;;;;;5009523;28;20909;-45
2021/11/07 01:43:03;;;;;;;6.33;5.70;;;9.60;99.90;;;;;;5015978;28;20329;-46
2021/11/07 01:45:45;;;;;;;6.40;4.80;;;9.70;99.90;;;;;;5012097;28;20505;-46
2021/11/07 01:48:16;;;;;;;6.00;5.40;;;9.70;99.90;;;;;;5010455;28;20441;-47
2021/11/07 01:50:46;;;;;;;8.13;5.70;;;9.80;99.90;;;;;;5012683;28;20425;-47
2021/11/07 01:55:44;;;;;;;6.90;6.10;;;9.60;99.90;;;;;;5021488;28;20425;-45
2021/11/07 01:58:09;;;;;;;6.77;5.50;;;9.60;99.90;;;;;;5024318;28;20461;-47
2021/11/07 02:00:35;;;;;;;6.43;5.70;;;9.70;99.90;;;;;;5021608;28;20209;-46
2021/11/07 02:03:01;;;;;;;7.97;7.17;;;9.80;99.90;;;;;;5019046;28;20484;-45
2021/11/07 02:05:27;;;;;;;6.23;5.33;;;9.70;99.90;;;;;;5008458;28;20276;-47
2021/11/07 02:07:54;;;;;;;6.20;5.60;;;9.70;99.90;;;;;;5007923;28;20446;-46
2021/11/07 02:10:19;;;;;;;8.60;5.73;;;9.70;99.90;;;;;;5008375;28;20180;-47
2021/11/07 02:12:46;;;;;;;7.20;5.73;;;9.60;99.90;;;;;;5015528;28;20438;-46
2021/11/07 02:15:15;;;;;;;10.20;7.07;;;9.40;99.90;;;;;;5020503;28;20186;-46
2021/11/07 02:17:42;;;;;;;10.03;6.53;;;9.40;99.90;;;;;;5020039;28;20800;-45
2021/11/07 02:20:11;;;;;;;7.37;6.27;;;9.50;99.90;;;;;;5008597;28;20437;-46
2021/11/07 02:22:39;;;;;;;7.43;6.67;;;9.50;99.90;;;;;;5019094;28;20426;-47
2021/11/07 02:25:06;;;;;;;6.50;5.90;;;9.50;99.90;;;;;;5007974;28;20434;-45
2021/11/07 02:27:32;;;;;;;6.70;5.93;;;9.70;99.90;;;;;;5011511;28;20504;-48
2021/11/07 02:29:58;;;;;;;7.47;5.80;;;9.40;99.90;;;;;;5017219;28;20421;-46
2021/11/07 02:32:26;;;;;;;6.37;5.73;;;9.40;99.90;;;;;;5015039;28;20418;-47
2021/11/07 02:34:52;;;;;;;7.40;6.67;;;9.50;99.90;;;;;;5007545;28;20469;-46
2021/11/07 02:37:18;;;;;;;6.83;6.13;;;9.50;99.90;;;;;;5014243;28;20429;-45
2021/11/07 02:39:45;;;;;;;9.67;8.67;;;9.60;99.90;;;;;;5008050;28;20461;-47
2021/11/07 02:42:12;;;;;;;9.53;8.57;;;9.70;99.90;;;;;;5007341;28;20860;-46
2021/11/07 02:44:41;;;;;;;11.57;10.37;;;9.70;99.90;;;;;;5021014;28;20456;-47
2021/11/07 02:47:09;;;;;;;13.40;12.03;;;9.80;99.90;;;;;;5024051;28;20966;-46
2021/11/07 02:49:36;;;;;;;15.53;10.37;;;9.50;99.90;;;;;;5011722;28;20430;-47
2021/11/07 02:52:04;;;;;;;12.90;11.47;;;9.70;99.90;;;;;;5009680;28;20859;-45
2021/11/07 02:54:30;;;;;;;14.33;11.30;;;9.40;99.90;;;;;;5009518;28;20430;-48
2021/11/07 02:56:57;;;;;;;9.13;7.73;;;9.50;99.90;;;;;;5027158;28;21014;-46
2021/11/07 02:59:26;;;;;;;9.70;7.63;;;9.40;99.90;;;;;;5016497;28;20194;-48
2021/11/07 03:01:54;;;;;;;8.57;7.67;;;9.70;99.90;;;;;;5019962;28;20437;-47
2021/11/07 03:04:20;;;;;;;6.83;6.13;;;9.40;99.90;;;;;;5010237;28;20440;-46
2021/11/07 03:06:45;;;;;;;6.03;5.43;;;9.50;99.90;;;;;;5015103;28;20476;-47
2021/11/07 03:09:16;;;;;;;7.63;5.80;;;9.60;99.90;;;;;;5010084;28;20465;-45
2021/11/07 03:11:42;;;;;;;7.33;6.00;;;9.50;99.90;;;;;;5007490;28;20195;-45
2021/11/07 03:14:16;;;;;;;6.33;5.73;;;9.50;99.90;;;;;;5006791;28;20442;-46
2021/11/07 03:16:43;;;;;;;6.73;6.00;;;9.60;99.90;;;;;;5017490;28;20428;-45
2021/11/07 03:19:10;;;;;;;6.70;6.10;;;9.50;99.90;;;;;;5006080;28;20962;-46
2021/11/07 03:21:36;;;;;;;8.13;6.37;;;9.60;99.90;;;;;;5012737;28;20433;-47
2021/11/07 03:24:02;;;;;;;7.20;6.47;;;9.50;99.90;;;;;;5007851;28;20426;-45
2021/11/07 03:26:30;;;;;;;8.07;7.13;;;9.50;99.90;;;;;;5007318;28;20549;-48
2021/11/07 03:29:00;;;;;;;7.67;6.80;;;9.40;99.90;;;;;;5015157;28;20446;-45
2021/11/07 03:34:02;;;;;;;9.10;8.30;;;9.50;99.90;;;;;;5006384;28;20422;-47
2021/11/07 03:36:32;;;;;;;8.70;7.97;;;9.50;99.90;;;;;;5010080;28;20847;-48
2021/11/07 03:38:58;;;;;;;9.03;8.13;;;9.50;99.90;;;;;;5007412;28;20790;-47
2021/11/07 03:41:24;;;;;;;9.23;8.33;;;9.60;99.90;;;;;;5007472;28;20430;-48
2021/11/07 03:43:50;;;;;;;9.50;8.60;;;9.70;99.90;;;;;;5009540;28;20444;-49
2021/11/07 03:46:16;;;;;;;9.10;8.30;;;9.60;99.90;;;;;;5014245;28;20975;-48
2021/11/07 03:48:42;;;;;;;11.03;8.80;;;9.60;99.90;;;;;;5010184;28;20261;-45
2021/11/07 03:51:12;;;;;;;9.13;8.33;;;9.60;99.90;;;;;;5007247;28;20458;-45
2021/11/07 03:53:39;;;;;;;10.43;9.53;;;9.60;99.90;;;;;;5016826;28;20199;-46
2021/11/07 03:56:05;;;;;;;11.60;9.93;;;9.60;99.90;;;;;;5022688;28;20903;-45
2021/11/07 03:58:30;;;;;;;10.57;9.57;;;9.60;99.90;;;;;;5026231;28;20452;-45
2021/11/07 04:00:56;;;;;;;10.63;9.20;;;9.80;99.90;;;;;;5013632;28;20431;-46
2021/11/07 04:03:22;;;;;;;11.10;10.00;;;9.80;99.90;;;;;;5009241;28;20984;-45
2021/11/07 04:05:48;;;;;;;11.07;9.93;;;9.60;99.90;;;;;;5006915;28;20504;-45
2021/11/07 04:08:14;;;;;;;11.80;10.63;;;9.60;99.90;;;;;;5014946;28;20430;-47
2021/11/07 04:10:40;;;;;;;11.70;10.37;;;9.60;99.90;;;;;;5009341;28;20638;-48
2021/11/07 04:13:06;;;;;;;11.20;10.20;;;9.80;99.90;;;;;;5020266;28;20512;-46
2021/11/07 04:15:32;;;;;;;12.10;10.90;;;9.90;99.90;;;;;;5020522;28;20454;-50
2021/11/07 04:17:59;;;;;;;11.97;10.70;;;9.60;99.90;;;;;;5025511;28;20457;-46
2021/11/07 04:20:25;;;;;;;12.07;10.83;;;9.70;99.90;;;;;;5011057;28;20808;-48
2021/11/07 04:22:51;;;;;;;13.20;10.80;;;9.70;99.90;;;;;;5013820;28;20430;-45
2021/11/07 04:25:17;;;;;;;11.50;10.50;;;9.70;99.90;;;;;;5010319;28;20683;-46
2021/11/07 04:27:43;;;;;;;13.40;12.03;;;9.70;99.90;;;;;;5010626;28;20194;-49
2021/11/07 04:30:11;;;;;;;12.47;11.20;;;9.70;99.90;;;;;;5017773;28;20501;-46
2021/11/07 04:32:37;;;;;;;11.20;10.20;;;9.80;99.90;;;;;;5023222;28;20429;-48
2021/11/07 04:35:04;;;;;;;12.20;11.00;;;9.80;99.90;;;;;;5013856;28;20426;-45
2021/11/07 04:37:30;;;;;;;12.03;10.93;;;9.70;99.90;;;;;;5019272;28;20420;-46
2021/11/07 04:39:56;;;;;;;11.50;10.50;;;9.70;99.90;;;;;;5014261;28;20512;-48
2021/11/07 04:42:22;;;;;;;13.83;12.53;;;9.70;99.90;;;;;;5010569;28;20524;-46
2021/11/07 04:44:48;;;;;;;12.40;11.20;;;9.70;99.90;;;;;;5013012;28;20529;-46
2021/11/07 04:47:14;;;;;;;12.50;11.37;;;9.90;99.90;;;;;;5024152;28;20253;-46
2021/11/07 04:49:40;;;;;;;13.83;11.50;;;9.60;99.90;;;;;;5010398;28;20521;-45
2021/11/07 04:52:06;;;;;;;13.20;11.90;;;9.70;99.90;;;;;;5014743;28;20186;-47
2021/11/07 04:54:32;;;;;;;13.33;10.90;;;9.60;99.90;;;;;;5016543;28;20412;-47
2021/11/07 04:56:58;;;;;;;13.23;11.93;;;9.80;99.90;;;;;;5029644;28;20514;-48
2021/11/07 04:59:25;;;;;;;13.40;12.20;;;9.70;99.90;;;;;;5024407;28;20836;-47
2021/11/07 05:01:51;;;;;;;12.93;11.63;;;9.70;99.90;;;;;;5021089;28;20578;-52
2021/11/07 05:04:18;;;;;;;14.53;12.00;;;9.70;99.90;;;;;;5025628;28;20792;-50
2021/11/07 05:06:45;;;;;;;12.07;10.97;;;9.90;99.90;;;;;;5010969;28;20496;-49
2021/11/07 05:09:10;;;;;;;13.50;12.10;;;9.80;99.90;;;;;;5012985;28;20599;-46
2021/11/07 05:11:37;;;;;;;12.97;11.70;;;9.80;99.90;;;;;;5010071;28;20973;-47
2021/11/07 05:14:03;;;;;;;12.90;11.60;;;9.70;99.90;;;;;;5011115;28;20228;-47
2021/11/07 05:16:29;;;;;;;12.43;11.30;;;9.80;99.90;;;;;;5028742;28;20472;-46
2021/11/07 05:18:55;;;;;;;11.67;10.57;;;9.70;99.90;;;;;;5020776;28;20461;-49
2021/11/07 05:21:22;;;;;;;13.33;12.13;;;9.70;99.90;;;;;;5009810;28;20426;-45
2021/11/07 05:23:48;;;;;;;13.50;11.50;;;9.80;99.90;;;;;;5008855;28;20191;-45
2021/11/07 05:26:14;;;;;;;12.97;11.67;;;9.90;99.90;;;;;;5009441;28;20818;-47
2021/11/07 05:28:39;;;;;;;12.43;10.40;;;9.80;99.90;;;;;;5010414;28;20198;-48
2021/11/07 05:31:05;;;;;;;12.10;10.90;;;9.80;99.90;;;;;;5018400;28;20194;-47
2021/11/07 05:33:31;;;;;;;12.83;10.60;;;9.90;99.90;;;;;;5015614;28;20709;-45
2021/11/07 05:35:57;;;;;;;12.40;10.27;;;9.90;99.90;;;;;;5009471;28;20281;-46
2021/11/07 05:38:23;;;;;;;15.00;10.23;;;9.80;99.90;;;;;;5018708;28;20481;-46
2021/11/07 05:40:48;;;;;;;12.50;10.40;;;9.90;99.90;;;;;;5009221;28;20533;-47
2021/11/07 05:43:14;;;;;;;10.67;9.67;;;9.80;99.90;;;;;;5008214;28;20202;-46
2021/11/07 05:45:40;;;;;;;11.80;10.60;;;9.80;99.90;;;;;;5009127;28;20214;-47
2021/11/07 05:48:06;;;;;;;11.30;10.17;;;9.70;99.90;;;;;;5018807;28;20518;-47
2021/11/07 05:50:33;;;;;;;10.73;9.30;;;9.90;99.90;;;;;;5009081;28;20622;-46
2021/11/07 05:53:00;;;;;;;10.33;9.33;;;9.90;99.90;;;;;;5014237;28;20467;-46
2021/11/07 05:55:25;;;;;;;11.10;10.00;;;9.70;99.90;;;;;;5017903;28;20437;-46
2021/11/07 05:57:51;;;;;;;10.60;9.50;;;9.80;99.90;;;;;;5028403;28;20499;-45
2021/11/07 06:00:19;;;;;;;11.00;9.90;;;9.80;99.90;;;;;;5022130;28;20512;-45
2021/11/07 06:02:46;;;;;;;11.47;10.37;;;9.70;99.90;;;;;;5019362;28;20195;-46
2021/11/07 06:05:13;;;;;;;10.73;9.73;;;9.80;99.90;;;;;;5008484;28;20517;-45
2021/11/07 06:07:39;;;;;;;9.97;9.00;;;9.90;99.90;;;;;;5009793;28;20422;-45
2021/11/07 06:10:05;;;;;;;10.40;9.30;;;10.00;99.90;;;;;;5008611;28;20468;-46
2021/11/07 06:12:31;;;;;;;9.80;8.80;;;9.70;99.90;;;;;;5007217;28;20253;-46
2021/11/07 06:14:56;;;;;;;10.07;8.33;;;10.00;99.90;;;;;;5009449;28;20190;-45
2021/11/07 06:17:22;;;;;;;10.73;9.67;;;9.90;99.90;;;;;;5016746;28;20190;-46
2021/11/07 06:19:48;;;;;;;10.70;9.10;;;9.80;99.90;;;;;;5012019;28;20195;-47
2021/11/07 06:22:13;;;;;;;11.20;10.10;;;9.80;99.90;;;;;;5009375;28;20218;-46
2021/11/07 06:24:39;;;;;;;14.03;12.10;;;10.00;99.90;;;;;;5017316;28;20274;-46
2021/11/07 06:27:06;;;;;;;13.03;11.57;;;10.10;99.90;;;;;;5007981;28;20219;-48
2021/11/07 06:29:32;;;;;;;13.70;12.27;;;10.20;99.90;;;;;;5014373;28;20471;-50
2021/11/07 06:31:59;;;;;;;15.30;12.60;;;10.10;99.90;;;;;;5013083;28;20410;-45
2021/11/07 06:34:26;;;;;;;13.70;12.17;;;10.10;99.90;;;;;;5011846;28;20430;-47
2021/11/07 06:36:52;;;;;;;12.07;10.87;;;10.10;99.90;;;;;;5008054;28;20430;-49
2021/11/07 06:39:19;;;;;;;13.03;11.60;;;10.00;99.90;;;;;;5013001;28;20433;-47
2021/11/07 06:41:45;;;;;;;11.00;9.50;;;9.90;99.90;;;;;;5012614;28;20878;-47
2021/11/07 06:44:12;;;;;;;11.40;10.20;;;10.00;99.90;;;;;;5018185;28;20473;-46
2021/11/07 06:46:38;;;;;;;11.07;9.97;;;10.00;99.90;;;;;;5018322;28;20488;-46
2021/11/07 06:49:06;;;;;;;12.00;9.83;;;10.00;99.90;;;;;;5024487;28;20844;-45
2021/11/07 06:51:32;;;;;;;10.50;9.50;;;10.00;99.90;;;;;;5009683;28;20488;-45
2021/11/07 06:53:58;;;;;;;12.53;10.37;;;10.10;99.90;;;;;;5009138;28;20434;-48
2021/11/07 06:56:24;;;;;;;10.03;9.03;;;10.10;99.90;;;;;;5026010;28;20709;-47
2021/11/07 06:58:50;;;;;;;12.07;10.87;;;10.10;99.90;;;;;;5027501;28;20449;-45
2021/11/07 07:01:16;;;;;;;11.50;10.40;;;10.20;99.90;;;;;;5011436;28;20469;-48
2021/11/07 07:03:41;;;;;;;12.87;11.50;;;10.20;99.90;;;;;;5021523;28;20422;-46
2021/11/07 07:06:07;;;;;;;13.03;11.43;;;10.20;99.90;;;;;;5007609;28;20218;-46
2021/11/07 07:08:43;;;;;;;12.93;10.90;;;10.20;99.90;;;;;;5016220;28;20240;-47
2021/11/07 07:11:14;;;;;;;14.50;11.40;;;10.20;99.90;;;;;;5007954;28;20669;-46
2021/11/07 07:13:47;;;;;;;12.50;10.97;;;10.10;99.90;;;;;;5006226;28;20437;-47
2021/11/07 07:22:12;;;;;;;11.83;10.63;;;10.30;99.90;;;;;;5007978;28;20430;-46
2021/11/07 07:34:24;;;;;;;13.70;12.30;;;10.20;99.90;;;;;;5019868;28;20417;-48
2021/11/07 07:36:52;;;;;;;13.60;11.30;;;10.20;99.90;;;;;;5010461;28;20198;-45
2021/11/07 07:39:18;;;;;;;12.37;10.80;;;10.40;99.90;;;;;;5010270;28;20496;-46
2021/11/07 07:41:44;;;;;;;13.20;11.87;;;10.60;99.90;;;;;;5007475;28;20433;-46
2021/11/07 07:44:11;;;;;;;18.10;13.10;;;10.40;99.90;;;;;;5005247;28;20440;-45
2021/11/07 07:46:42;;;;;;;13.90;12.50;;;10.30;99.90;;;;;;5022965;28;20469;-47
2021/11/07 07:49:11;;;;;;;14.03;12.60;;;10.40;99.90;;;;;;5020711;28;20425;-48
2021/11/07 07:51:37;;;;;;;17.50;12.73;;;10.40;99.90;;;;;;5008708;28;20501;-46
2021/11/07 07:54:05;;;;;;;16.30;12.40;;;10.50;99.90;;;;;;5016812;28;20866;-45
2021/11/07 07:56:32;;;;;;;14.53;12.80;;;10.40;99.90;;;;;;5028497;28;20190;-45
2021/11/07 07:58:57;;;;;;;15.03;12.33;;;10.30;99.90;;;;;;5021448;28;20806;-46
2021/11/07 08:01:24;;;;;;;15.83;12.67;;;10.50;99.90;;;;;;5017869;28;20442;-48
2021/11/07 08:03:51;;;;;;;15.30;12.73;;;10.50;99.90;;;;;;5019663;28;20186;-46
2021/11/07 08:06:17;;;;;;;14.33;12.73;;;10.40;99.90;;;;;;5015940;28;20457;-48
2021/11/07 08:08:43;;;;;;;14.70;13.00;;;10.40;99.90;;;;;;5030841;28;20428;-46
2021/11/07 08:11:08;;;;;;;19.80;14.97;;;10.60;99.90;;;;;;5011191;28;20418;-48
2021/11/07 08:13:34;;;;;;;15.50;13.50;;;10.40;99.90;;;;;;5012608;28;20183;-50
2021/11/07 08:16:00;;;;;;;15.97;14.10;;;10.40;99.90;;;;;;5020213;28;20191;-47
2021/11/07 08:18:26;;;;;;;17.67;13.93;;;10.40;99.90;;;;;;5024738;28;20218;-46
2021/11/07 08:20:52;;;;;;;19.20;14.27;;;10.50;99.90;;;;;;5003776;28;20187;-46
2021/11/07 08:23:21;;;;;;;17.23;14.70;;;10.40;99.90;;;;;;5011506;28;20463;-45
2021/11/07 08:25:48;;;;;;;18.10;14.50;;;10.60;99.90;;;;;;5009882;28;20507;-48
2021/11/07 08:28:18;;;;;;;18.10;14.10;;;10.50;99.90;;;;;;5008067;28;20637;-48
2021/11/07 08:30:45;;;;;;;16.90;14.00;;;10.50;99.90;;;;;;5015086;28;20977;-45
2021/11/07 08:33:11;;;;;;;18.77;14.30;;;10.50;99.90;;;;;;5018922;28;20512;-46
2021/11/07 08:35:41;;;;;;;15.87;14.17;;;10.50;99.90;;;;;;5022524;28;20483;-47
2021/11/07 08:38:24;;;;;;;19.37;14.87;;;10.60;99.90;;;;;;5017072;28;20429;-45
2021/11/07 08:40:53;;;;;;;24.10;15.47;;;10.60;99.90;;;;;;5018731;28;20422;-49
2021/11/07 09:05:25;;;;;;;18.73;12.33;;;10.80;99.90;;;;;;5027272;28;20424;-49
2021/11/07 09:10:30;;;;;;;16.33;11.20;;;10.90;99.90;;;;;;5013154;28;20534;-47
2021/11/07 09:12:56;;;;;;;15.63;9.43;;;10.80;99.90;;;;;;5007126;28;20464;-47
2021/11/07 09:15:24;;;;;;;17.43;10.73;;;10.90;99.90;;;;;;5012205;28;20943;-47
2021/11/07 09:17:50;;;;;;;12.70;10.33;;;10.90;99.90;;;;;;5024751;28;20425;-48
2021/11/07 09:20:26;;;;;;;12.23;8.87;;;11.00;99.90;;;;;;5020651;28;20440;-48
2021/11/07 09:22:57;;;;;;;17.70;10.00;;;11.20;99.90;;;;;;5015549;28;20436;-47
2021/11/07 09:28:16;;;;;;;11.47;7.70;;;11.60;99.90;;;;;;5007331;28;20440;-47
2021/11/07 09:33:16;;;;;;;12.67;7.40;;;12.00;99.90;;;;;;5014973;28;20433;-46
2021/11/07 09:38:30;;;;;;;13.97;5.80;;;12.50;99.90;;;;;;5033069;28;20500;-46
2021/11/07 09:41:09;;;;;;;14.17;6.60;;;12.60;99.90;;;;;;5036386;28;20444;-51
2021/11/07 09:43:51;;;;;;;15.90;6.20;;;12.70;99.90;;;;;;5035431;28;20433;-48
2021/11/07 09:48:52;;;;;;;11.70;6.20;;;13.10;99.90;;;;;;5034845;28;20463;-46
2021/11/07 09:51:20;;;;;;;12.73;5.57;;;13.20;99.90;;;;;;5022770;28;20459;-47
2021/11/07 09:53:55;;;;;;;12.07;5.67;;;13.30;99.90;;;;;;5023684;28;20440;-47
2021/11/07 09:56:23;;;;;;;11.07;5.20;;;13.20;99.90;;;;;;5021992;28;20448;-46
2021/11/07 09:58:51;;;;;;;11.00;5.43;;;13.00;99.90;;;;;;5025820;28;20436;-47
2021/11/07 10:01:18;;;;;;;13.07;5.40;;;12.70;99.90;;;;;;5022619;28;20445;-46
2021/11/07 10:03:45;;;;;;;12.30;5.30;;;12.70;99.90;;;;;;5024427;28;20413;-46
2021/11/07 10:06:51;;;;;;;11.10;5.00;;;12.40;99.90;;;;;;5023254;28;20457;-47
2021/11/07 10:09:39;;;;;;;10.97;5.13;;;12.20;99.90;;;;;;5012118;28;20433;-46
2021/11/07 10:12:18;;;;;;;16.53;5.60;;;12.20;99.90;;;;;;5035444;28;20486;-48
2021/11/07 10:14:56;;;;;;;8.77;5.37;;;12.40;99.90;;;;;;5034888;28;20423;-48
2021/11/07 10:17:42;;;;;;;16.20;5.57;;;12.60;99.90;;;;;;5025736;28;20492;-49
2021/11/07 10:22:58;;;;;;;15.53;6.53;;;13.10;99.90;;;;;;5006575;28;20766;-46
2021/11/07 10:25:56;;;;;;;10.37;5.50;;;13.10;99.90;;;;;;5016663;28;20441;-50
2021/11/07 10:28:33;;;;;;;13.23;4.50;;;12.90;99.90;;;;;;5006573;28;20953;-46
2021/11/07 10:31:27;;;;;;;14.50;3.97;;;12.70;99.90;;;;;;5010969;28;20830;-46
2021/11/07 10:46:12;;;;;;;10.03;4.23;;;12.00;99.90;;;;;;5015348;28;20747;-46
2021/11/07 10:53:51;;;;;;;15.50;5.03;;;11.90;99.90;;;;;;5004878;28;20521;-49
2021/11/07 10:56:17;;;;;;;9.33;3.77;;;11.90;99.90;;;;;;5020544;28;20584;-46
2021/11/07 10:58:47;;;;;;;11.97;4.20;;;11.90;99.90;;;;;;5020733;28;20916;-46
2021/11/07 11:01:20;;;;;;;12.50;3.87;;;11.80;99.90;;;;;;5017298;28;20191;-46
2021/11/07 11:03:48;;;;;;;18.97;5.33;;;11.80;99.90;;;;;;5015617;28;20931;-46
2021/11/07 11:06:16;;;;;;;10.27;3.13;;;11.90;99.90;;;;;;5016251;28;20809;-46
2021/11/07 11:08:59;;;;;;;10.70;3.20;;;12.00;99.90;;;;;;5022546;28;20528;-47
2021/11/07 11:22:11;;;;;;;11.67;4.13;;;12.00;99.90;;;;;;5012245;28;20454;-49
2021/11/07 11:30:24;;;;;;;9.93;4.67;;;12.00;99.90;;;;;;5006942;28;20430;-49
2021/11/07 11:32:58;;;;;;;11.87;4.00;;;12.10;99.90;;;;;;5016376;28;20432;-49
2021/11/07 11:35:37;;;;;;;12.80;3.07;;;12.20;99.90;;;;;;5019911;28;20457;-48
2021/11/07 11:43:15;;;;;;;7.17;3.23;;;12.40;99.90;;;;;;5006365;28;20480;-45
2021/11/07 11:45:43;;;;;;;11.03;3.27;;;12.60;99.90;;;;;;5006579;28;20453;-45
2021/11/07 11:54:06;;;;;;;14.87;3.53;;;12.50;99.90;;;;;;5006617;28;20571;-46
2021/11/07 11:56:44;;;;;;;12.10;3.43;;;12.50;99.90;;;;;;5019998;28;20426;-48
2021/11/07 11:59:49;;;;;;;16.90;3.67;;;12.40;99.90;;;;;;5006953;28;20437;-49
2021/11/07 12:02:25;;;;;;;9.23;3.30;;;12.30;99.90;;;;;;5009977;28;20459;-47
2021/11/07 12:05:28;;;;;;;11.80;3.20;;;12.30;99.90;;;;;;5018861;28;20428;-47
2021/11/07 12:10:45;;;;;;;13.80;3.20;;;12.70;99.90;;;;;;5012775;28;20417;-46
2021/11/07 12:13:58;;;;;;;12.27;3.87;;;12.80;99.90;;;;;;5005303;28;20457;-46
2021/11/07 12:16:49;;;;;;;8.20;4.23;;;12.90;99.90;;;;;;5007149;28;20421;-47
2021/11/07 12:19:18;;;;;;;7.60;3.23;;;13.00;99.90;;;;;;5022314;28;20971;-46
2021/11/07 12:21:56;;;;;;;6.30;2.57;;;12.80;99.90;;;;;;5023174;28;20421;-46
2021/11/07 12:24:28;;;;;;;10.10;3.40;;;12.80;99.90;;;;;;5006493;28;20837;-45
2021/11/07 12:27:23;;;;;;;6.80;2.87;;;12.80;99.90;;;;;;5008960;28;20835;-46
2021/11/07 12:30:03;;;;;;;10.77;3.50;;;12.70;99.90;;;;;;5006778;28;20439;-45
2021/11/07 12:32:37;;;;;;;10.10;3.20;;;12.60;99.90;;;;;;5008302;28;20463;-47
2021/11/07 12:35:28;;;;;;;9.27;3.53;;;12.60;99.90;;;;;;5019239;28;20426;-46
2021/11/07 12:40:51;;;;;;;10.40;3.40;;;12.60;99.90;;;;;;5014137;28;20433;-45
2021/11/07 12:43:20;;;;;;;8.53;2.67;;;12.40;99.90;;;;;;5010068;28;20422;-46
2021/11/07 12:45:49;;;;;;;8.53;2.60;;;12.20;99.90;;;;;;5010057;28;20466;-47
2021/11/07 12:48:44;;;;;;;6.17;2.87;;;12.20;99.90;;;;;;5010572;28;20442;-49
2021/11/07 12:51:14;;;;;;;9.40;2.93;;;12.20;99.90;;;;;;5019563;28;20545;-45
2021/11/07 12:53:54;;;;;;;11.93;3.13;;;12.20;99.90;;;;;;5009104;28;20841;-47
2021/11/07 12:56:45;;;;;;;11.33;3.37;;;12.30;99.90;;;;;;5018759;28;20525;-45
2021/11/07 12:59:21;;;;;;;7.63;2.60;;;12.40;99.90;;;;;;5015754;28;20475;-47
2021/11/07 13:01:55;;;;;;;5.10;3.10;;;12.40;99.90;;;;;;5020312;28;20524;-48
2021/11/07 13:04:22;;;;;;;8.43;2.90;;;12.50;99.90;;;;;;5018327;28;20532;-49
2021/11/07 13:06:51;;;;;;;7.33;2.43;;;12.40;99.90;;;;;;5039210;28;20472;-46
2021/11/07 13:09:20;;;;;;;10.70;3.00;;;12.30;99.90;;;;;;5032732;28;20470;-45
2021/11/07 13:11:51;;;;;;;8.53;2.97;;;12.30;99.90;;;;;;5037617;28;20794;-46
2021/11/07 13:14:50;;;;;;;10.80;3.17;;;12.30;99.90;;;;;;5032528;28;20524;-46
2021/11/07 13:17:23;;;;;;;9.67;3.00;;;12.40;99.90;;;;;;5031859;28;20507;-46
2021/11/07 13:23:29;;;;;;;9.20;3.53;;;12.30;99.90;;;;;;5029666;28;20467;-48
2021/11/07 13:31:21;;;;;;;9.20;3.47;;;12.40;99.90;;;;;;5023439;28;20789;-47
2021/11/07 13:33:48;;;;;;;17.40;4.13;;;12.40;99.90;;;;;;5018056;28;20524;-45
2021/11/07 13:36:17;;;;;;;7.27;2.67;;;12.40;99.90;;;;;;5013473;28;20522;-46
2021/11/07 13:38:52;;;;;;;9.00;3.40;;;12.50;99.90;;;;;;5008178;28;20422;-45
2021/11/07 13:41:23;;;;;;;13.27;3.63;;;12.50;99.90;;;;;;5016411;28;20428;-46
2021/11/07 13:44:03;;;;;;;7.60;2.67;;;12.50;99.90;;;;;;5007574;28;20775;-45
2021/11/07 13:46:30;;;;;;;7.30;3.70;;;12.50;99.90;;;;;;5007872;28;20473;-47
2021/11/07 13:49:02;;;;;;;12.47;3.10;;;12.40;99.90;;;;;;5021025;28;20437;-45
2021/11/07 13:51:34;;;;;;;11.30;3.00;;;12.30;99.90;;;;;;5025732;28;20453;-47
2021/11/07 13:54:02;;;;;;;5.60;2.67;;;12.30;99.90;;;;;;5039176;28;20459;-46
2021/11/07 13:56:28;;;;;;;6.87;2.50;;;12.20;99.90;;;;;;5038385;28;20754;-47
2021/11/07 13:58:54;;;;;;;8.23;2.80;;;12.10;99.90;;;;;;5040558;28;20439;-45
2021/11/07 14:01:21;;;;;;;9.70;3.63;;;12.00;99.90;;;;;;5030900;28;20432;-47
2021/11/07 14:03:53;;;;;;;9.23;2.30;;;12.00;99.90;;;;;;5029189;28;21108;-47
2021/11/07 14:06:34;;;;;;;7.67;2.87;;;12.10;99.90;;;;;;5022167;28;20993;-47
2021/11/07 14:09:03;;;;;;;8.33;3.40;;;12.00;99.90;;;;;;5020373;28;20968;-45
2021/11/07 14:11:30;;;;;;;15.27;3.40;;;12.00;99.90;;;;;;5016532;28;20436;-45
2021/11/07 14:13:59;;;;;;;12.53;2.77;;;12.00;99.90;;;;;;5029119;28;20413;-45
2021/11/07 14:16:35;;;;;;;7.67;2.33;;;11.90;99.90;;;;;;5032268;28;20804;-45
2021/11/07 14:19:04;;;;;;;8.97;3.17;;;11.80;99.90;;;;;;5033881;28;20636;-46
2021/11/07 14:21:32;;;;;;;5.43;2.17;;;11.80;99.90;;;;;;5035844;28;20409;-48
2021/11/07 14:32:11;;;;;;;6.80;3.30;;;11.50;99.90;;;;;;5032127;28;20462;-46
2021/11/07 14:48:09;;;;;;;17.17;10.13;;;10.60;99.90;;;;;;5021239;28;20952;-47
2021/11/07 14:59:12;;;;;;;8.03;3.57;;;10.50;99.90;;;;;;5024013;28;20491;-46
2021/11/07 15:01:42;;;;;;;6.70;3.30;;;10.60;99.90;;;;;;5025715;28;20409;-47
2021/11/07 15:04:19;;;;;;;14.40;5.10;;;10.50;99.90;;;;;;5014088;28;20990;-46
2021/11/07 15:07:15;;;;;;;15.33;3.60;;;10.60;99.90;;;;;;5019698;28;20502;-47
2021/11/07 15:12:36;;;;;;;7.50;2.73;;;10.90;99.90;;;;;;5021486;28;20412;-47
2021/11/07 15:18:02;;;;;;;8.87;3.03;;;11.40;99.90;;;;;;5019023;28;20743;-48
2021/11/07 15:20:38;;;;;;;8.90;2.60;;;11.60;99.90;;;;;;5022882;28;20436;-47
2021/11/07 15:23:04;;;;;;;5.83;2.60;;;11.90;99.90;;;;;;5031892;28;20425;-46
2021/11/07 15:25:36;;;;;;;10.80;2.77;;;12.10;99.90;;;;;;5031552;28;20511;-46
2021/11/07 15:28:16;;;;;;;7.17;3.03;;;12.70;99.90;;;;;;5019484;28;20445;-46
2021/11/07 15:30:42;;;;;;;6.03;3.20;;;12.90;99.90;;;;;;5020855;28;20483;-48
2021/11/07 15:33:14;;;;;;;7.77;3.40;;;13.60;99.90;;;;;;5024092;28;20874;-49
2021/11/07 15:35:48;;;;;;;8.07;3.23;;;14.20;99.90;;;;;;5021581;28;20417;-47
2021/11/07 15:38:21;;;;;;;11.33;4.80;;;14.70;99.90;;;;;;5023900;28;20420;-50
2021/11/07 15:40:48;;;;;;;13.60;5.33;;;15.00;99.90;;;;;;5021884;28;20496;-46
2021/11/07 15:43:24;;;;;;;7.90;4.37;;;15.20;99.90;;;;;;5021142;28;20458;-51